createdAt,value
2022-10-31T00:01:31.060Z,71.56
2022-10-31T00:03:57.658Z,71.33
2022-10-31T00:06:24.666Z,71.01
2022-10-31T00:08:58.042Z,70.59
2022-10-31T00:11:25.209Z,70.20
2022-10-31T00:13:51.985Z,70.33
2022-10-31T00:16:22.676Z,70.38
2022-10-31T00:18:56.239Z,70.89
2022-10-31T00:21:23.781Z,71.12
2022-10-31T00:23:50.383Z,71.69
2022-10-31T00:26:17.200Z,71.84
2022-10-31T00:28:44.134Z,71.32
2022-10-31T00:31:13.254Z,71.13
2022-10-31T00:33:42.301Z,71.24
2022-10-31T00:36:14.901Z,71.85
2022-10-31T00:38:43.058Z,71.70
2022-10-31T00:41:11.037Z,71.39
2022-10-31T00:43:37.757Z,72.00
2022-10-31T00:46:04.368Z,72.12
2022-10-31T00:48:31.085Z,72.15
2022-10-31T00:50:58.065Z,72.30
2022-10-31T00:53:24.616Z,71.85
2022-10-31T00:55:51.253Z,71.97
2022-10-31T00:58:17.782Z,72.19
2022-10-31T01:00:46.785Z,71.85
2022-10-31T01:03:15.886Z,71.74
2022-10-31T01:05:42.414Z,71.96
2022-10-31T01:08:08.859Z,72.35
2022-10-31T01:10:35.308Z,72.38
2022-10-31T01:13:01.978Z,72.31
2022-10-31T01:15:28.560Z,71.68
2022-10-31T01:17:54.991Z,71.42
2022-10-31T01:20:21.581Z,71.03
2022-10-31T01:22:48.041Z,71.21
2022-10-31T01:25:14.705Z,71.33
2022-10-31T01:27:41.251Z,71.43
2022-10-31T01:30:08.322Z,71.53
2022-10-31T01:32:34.790Z,71.80
2022-10-31T01:35:01.270Z,71.85
2022-10-31T01:37:27.833Z,71.97
2022-10-31T01:39:54.305Z,71.54
2022-10-31T01:42:23.768Z,71.64
2022-10-31T01:45:01.510Z,70.64
2022-10-31T01:47:38.659Z,70.44
2022-10-31T01:50:14.503Z,70.25
2022-10-31T01:52:50.619Z,70.50
2022-10-31T01:55:29.990Z,71.36
2022-10-31T01:58:06.404Z,71.38
2022-10-31T02:00:33.130Z,71.87
2022-10-31T02:03:00.618Z,72.45
2022-10-31T02:05:31.205Z,72.66
2022-10-31T02:08:14.570Z,72.39
2022-10-31T02:10:44.572Z,72.96
2022-10-31T02:13:13.818Z,72.85
2022-10-31T02:15:43.653Z,72.63
2022-10-31T02:18:10.693Z,72.67
2022-10-31T02:21:00.478Z,72.56
2022-10-31T02:23:57.398Z,72.94
2022-10-31T02:27:09.184Z,72.27
2022-10-31T02:29:57.041Z,71.90
2022-10-31T02:32:40.288Z,71.82
2022-10-31T02:35:31.408Z,72.02
2022-10-31T02:38:36.362Z,72.49
2022-10-31T02:41:19.605Z,72.23
2022-10-31T02:43:51.213Z,72.15
2022-10-31T02:46:30.150Z,72.44
2022-10-31T02:49:19.134Z,72.35
2022-10-31T02:51:46.645Z,72.69
2022-10-31T02:54:26.133Z,72.15
2022-10-31T02:57:05.336Z,72.12
2022-10-31T02:59:39.163Z,71.83
2022-10-31T03:02:58.731Z,71.80
2022-10-31T03:06:00.551Z,72.62
2022-10-31T03:09:00.181Z,72.74
2022-10-31T03:11:53.955Z,72.29
2022-10-31T03:14:49.825Z,71.71
2022-10-31T03:17:36.969Z,72.23
2022-10-31T03:20:07.188Z,72.92
2022-10-31T03:22:36.498Z,72.71
2022-10-31T03:25:06.754Z,72.45
2022-10-31T03:27:38.209Z,72.64
2022-10-31T03:30:08.617Z,72.42
2022-10-31T03:32:44.978Z,71.89
2022-10-31T03:35:18.437Z,71.86
2022-10-31T03:37:47.500Z,72.28
2022-10-31T03:40:19.925Z,72.76
2022-10-31T03:42:59.208Z,72.50
2022-10-31T03:45:31.123Z,72.21
2022-10-31T03:48:00.543Z,71.77
2022-10-31T03:50:41.223Z,71.45
2022-10-31T03:53:20.539Z,71.78
2022-10-31T03:55:56.774Z,72.15
2022-10-31T03:58:40.398Z,72.96
2022-10-31T04:01:16.224Z,72.93
2022-10-31T04:03:45.359Z,72.75
2022-10-31T04:06:15.754Z,72.60
2022-10-31T04:08:57.028Z,72.93
2022-10-31T04:11:31.100Z,73.03
2022-10-31T04:14:01.288Z,73.18
2022-10-31T04:16:28.893Z,73.32
2022-10-31T04:18:55.661Z,73.23
2022-10-31T04:21:29.539Z,73.33
2022-10-31T04:23:56.367Z,73.04
2022-10-31T04:26:23.200Z,72.57
2022-10-31T04:28:49.641Z,72.47
2022-10-31T04:31:16.489Z,72.61
2022-10-31T04:33:43.297Z,72.63
2022-10-31T04:36:10.157Z,72.21
2022-10-31T04:38:36.809Z,71.99
2022-10-31T04:41:03.638Z,71.78
2022-10-31T04:43:30.078Z,71.59
2022-10-31T04:45:56.567Z,71.75
2022-10-31T04:48:23.059Z,71.55
2022-10-31T04:50:49.496Z,72.07
2022-10-31T04:53:15.941Z,72.29
2022-10-31T04:55:42.376Z,72.29
2022-10-31T04:58:08.849Z,72.58
2022-10-31T05:00:35.389Z,71.90
2022-10-31T05:03:02.150Z,72.03
2022-10-31T05:05:32.373Z,71.81
2022-10-31T05:07:59.080Z,72.44
2022-10-31T05:10:30.000Z,72.14
2022-10-31T05:13:01.043Z,72.13
2022-10-31T05:15:29.418Z,72.07
2022-10-31T05:17:57.353Z,71.96
2022-10-31T05:20:29.021Z,72.12
2022-10-31T05:22:58.724Z,72.35
2022-10-31T05:25:29.090Z,72.84
2022-10-31T05:27:57.237Z,72.94
2022-10-31T05:30:30.658Z,72.98
2022-10-31T05:32:58.098Z,73.41
2022-10-31T05:35:32.921Z,72.80
2022-10-31T05:38:00.448Z,72.59
2022-10-31T05:40:28.877Z,72.24
2022-10-31T05:42:57.983Z,71.93
2022-10-31T05:45:25.281Z,72.23
2022-10-31T05:47:58.296Z,72.18
2022-10-31T05:50:27.281Z,72.73
2022-10-31T05:53:02.484Z,72.64
2022-10-31T05:55:30.321Z,72.64
2022-10-31T05:57:57.224Z,72.73
2022-10-31T06:00:26.104Z,73.40
2022-10-31T06:03:06.199Z,73.27
2022-10-31T06:05:33.476Z,73.00
2022-10-31T06:08:00.830Z,72.90
2022-10-31T06:10:28.858Z,72.27
2022-10-31T06:12:55.384Z,72.43
2022-10-31T06:15:24.340Z,72.90
2022-10-31T06:18:03.698Z,73.08
2022-10-31T06:20:31.449Z,73.14
2022-10-31T06:22:58.302Z,73.06
2022-10-31T06:25:26.365Z,72.69
2022-10-31T06:27:52.829Z,72.48
2022-10-31T06:30:19.629Z,73.49
2022-10-31T06:32:46.142Z,73.54
2022-10-31T06:35:12.621Z,73.80
2022-10-31T06:37:39.687Z,73.53
2022-10-31T06:40:06.738Z,73.39
2022-10-31T06:42:33.194Z,72.95
2022-10-31T06:44:59.701Z,72.65
2022-10-31T06:47:26.162Z,72.44
2022-10-31T06:49:52.610Z,71.90
2022-10-31T06:52:19.044Z,72.26
2022-10-31T06:54:45.467Z,72.07
2022-10-31T06:57:11.917Z,71.77
2022-10-31T06:59:38.399Z,71.54
2022-10-31T07:02:04.916Z,71.49
2022-10-31T07:04:31.516Z,71.39
2022-10-31T07:06:57.964Z,71.72
2022-10-31T07:09:24.444Z,71.71
2022-10-31T07:11:53.853Z,71.03
2022-10-31T07:14:20.915Z,71.03
2022-10-31T07:16:51.908Z,71.13
2022-10-31T07:19:18.510Z,71.65
2022-10-31T07:21:44.970Z,71.61
2022-10-31T07:24:11.408Z,71.98
2022-10-31T07:26:37.898Z,72.17
2022-10-31T07:29:04.470Z,72.91
2022-10-31T07:31:30.917Z,72.50
2022-10-31T07:33:57.392Z,72.24
2022-10-31T07:36:23.817Z,72.41
2022-10-31T07:38:50.734Z,72.50
2022-10-31T07:41:17.189Z,72.28
2022-10-31T07:43:43.697Z,72.61
2022-10-31T07:46:10.275Z,72.57
2022-10-31T07:48:36.774Z,72.37
2022-10-31T07:51:03.291Z,72.15
2022-10-31T07:53:29.751Z,72.31
2022-10-31T07:55:56.178Z,72.63
2022-10-31T07:58:22.618Z,72.60
2022-10-31T08:00:49.422Z,72.27
2022-10-31T08:03:19.531Z,72.10
2022-10-31T08:05:47.193Z,72.11
2022-10-31T08:08:15.233Z,72.04
2022-10-31T08:10:42.182Z,71.88
2022-10-31T08:13:14.803Z,72.12
2022-10-31T08:15:42.932Z,72.27
2022-10-31T08:18:15.257Z,72.03
2022-10-31T08:20:43.571Z,71.98
2022-10-31T08:23:12.795Z,72.23
2022-10-31T08:25:39.591Z,72.20
2022-10-31T08:28:07.939Z,71.74
2022-10-31T08:30:37.364Z,71.92
2022-10-31T08:33:17.815Z,71.52
2022-10-31T08:35:45.189Z,71.84
2022-10-31T08:38:13.709Z,71.89
2022-10-31T08:40:40.671Z,71.77
2022-10-31T08:43:14.020Z,71.76
2022-10-31T08:45:40.965Z,72.53
2022-10-31T08:48:14.321Z,72.03
2022-10-31T08:50:42.072Z,72.28
2022-10-31T08:53:17.349Z,72.37
2022-10-31T08:55:45.947Z,73.37
2022-10-31T08:58:19.097Z,73.15
2022-10-31T09:00:52.167Z,73.26
2022-10-31T09:03:23.996Z,73.36
2022-10-31T09:05:51.715Z,73.83
2022-10-31T09:08:18.401Z,73.99
2022-10-31T09:10:45.924Z,74.32
2022-10-31T09:13:19.062Z,73.56
2022-10-31T09:15:48.230Z,73.67
2022-10-31T09:18:18.629Z,73.49
2022-10-31T09:20:47.234Z,73.54
2022-10-31T09:23:18.885Z,72.84
2022-10-31T09:25:50.741Z,72.80
2022-10-31T09:28:23.620Z,72.37
2022-10-31T09:30:53.984Z,72.20
2022-10-31T09:33:21.797Z,71.72
2022-10-31T09:35:48.646Z,72.10
2022-10-31T09:38:21.191Z,71.68
2022-10-31T09:41:20.521Z,71.29
2022-10-31T09:44:23.318Z,70.66
2022-10-31T09:47:14.916Z,70.30
2022-10-31T09:50:22.843Z,70.33
2022-10-31T09:53:23.911Z,69.56
2022-10-31T09:55:52.569Z,69.63
2022-10-31T09:58:29.301Z,68.69
2022-10-31T10:01:01.936Z,68.36
2022-10-31T10:03:50.881Z,67.99
2022-10-31T10:06:25.596Z,68.47
2022-10-31T10:08:53.170Z,68.77
2022-10-31T10:12:17.502Z,67.48
2022-10-31T10:15:17.169Z,67.52
2022-10-31T10:18:06.145Z,67.94
2022-10-31T10:20:52.225Z,67.54
2022-10-31T10:23:52.202Z,67.95
2022-10-31T10:26:22.406Z,68.56
2022-10-31T10:29:03.445Z,68.14
2022-10-31T10:31:43.578Z,67.76
2022-10-31T10:34:22.980Z,67.66
2022-10-31T10:37:01.097Z,66.01
2022-10-31T10:39:42.085Z,67.81
2022-10-31T10:42:33.933Z,67.21
2022-10-31T10:45:33.176Z,67.26
2022-10-31T10:48:35.782Z,67.21
2022-10-31T10:51:04.051Z,67.42
2022-10-31T10:54:07.944Z,67.00
2022-10-31T10:57:15.806Z,66.47
2022-10-31T10:59:42.309Z,67.25
2022-10-31T11:02:25.863Z,67.15
2022-10-31T11:04:56.098Z,67.14
2022-10-31T11:07:23.064Z,67.25
2022-10-31T11:09:49.634Z,66.31
2022-10-31T11:12:45.136Z,65.93
2022-10-31T11:15:51.888Z,65.38
2022-10-31T11:18:27.120Z,65.91
2022-10-31T11:20:57.783Z,65.46
2022-10-31T11:23:27.824Z,65.44
2022-10-31T11:26:03.392Z,65.49
2022-10-31T11:28:33.348Z,65.17
2022-10-31T11:31:14.009Z,64.91
2022-10-31T11:33:50.998Z,63.63
2022-10-31T11:36:25.725Z,64.57
2022-10-31T11:38:54.476Z,64.77
2022-10-31T11:41:28.537Z,64.11
2022-10-31T11:43:59.552Z,63.76
2022-10-31T11:46:39.161Z,62.76
2022-10-31T11:49:29.621Z,63.31
2022-10-31T11:52:01.808Z,63.82
2022-10-31T11:54:48.485Z,62.94
2022-10-31T11:57:29.568Z,62.95
2022-10-31T12:00:00.157Z,63.20
2022-10-31T12:02:28.136Z,62.51
2022-10-31T12:05:06.715Z,62.45
2022-10-31T12:07:33.203Z,62.54
2022-10-31T12:09:59.881Z,61.19
2022-10-31T12:12:42.475Z,60.42
2022-10-31T12:15:35.515Z,57.59
2022-10-31T12:18:31.048Z,58.85
2022-10-31T12:21:20.760Z,59.52
2022-10-31T12:24:05.733Z,59.77
2022-10-31T12:27:14.180Z,60.10
2022-10-31T12:30:20.027Z,58.76
2022-10-31T12:33:11.540Z,59.13
2022-10-31T12:36:06.920Z,58.84
2022-10-31T12:38:50.931Z,57.09
2022-10-31T12:42:03.338Z,57.26
2022-10-31T12:45:13.927Z,57.05
2022-10-31T12:48:08.653Z,57.91
2022-10-31T12:51:18.333Z,57.47
2022-10-31T12:54:10.962Z,57.67
2022-10-31T12:57:08.330Z,57.76
2022-10-31T12:59:43.965Z,57.42
2022-10-31T13:02:57.641Z,56.78
2022-10-31T13:05:36.941Z,56.89
2022-10-31T13:08:28.651Z,56.67
2022-10-31T13:11:09.174Z,56.48
2022-10-31T13:13:49.360Z,56.56
2022-10-31T13:16:27.563Z,56.79
2022-10-31T13:19:04.559Z,56.57
2022-10-31T13:21:58.737Z,56.57
2022-10-31T13:24:50.651Z,56.99
2022-10-31T13:27:26.244Z,56.80
2022-10-31T13:30:15.966Z,56.21
2022-10-31T13:32:50.385Z,55.36
2022-10-31T13:36:06.515Z,55.00
2022-10-31T13:39:29.793Z,54.91
2022-10-31T13:42:21.398Z,55.35
2022-10-31T13:44:47.909Z,56.04
2022-10-31T13:47:29.050Z,56.05
2022-10-31T13:50:20.284Z,55.65
2022-10-31T13:52:47.326Z,56.07
2022-10-31T13:55:39.230Z,54.12
2022-10-31T13:58:29.125Z,55.45
2022-10-31T14:01:10.848Z,54.93
2022-10-31T14:06:46.273Z,54.37
2022-10-31T14:10:03.511Z,55.25
2022-10-31T14:12:45.584Z,54.90
2022-10-31T14:15:22.993Z,55.18
2022-10-31T14:18:06.486Z,54.75
2022-10-31T14:20:42.325Z,55.25
2022-10-31T14:23:30.777Z,55.39
2022-10-31T14:26:29.169Z,53.83
2022-10-31T14:28:59.925Z,54.66
2022-10-31T14:31:38.796Z,54.66
2022-10-31T14:34:35.545Z,54.43
2022-10-31T14:37:20.871Z,55.30
2022-10-31T14:40:32.485Z,54.50
2022-10-31T14:43:42.663Z,55.44
2022-10-31T14:46:44.872Z,55.64
2022-10-31T14:49:46.097Z,55.58
2022-10-31T14:52:17.788Z,56.08
2022-10-31T14:54:56.324Z,56.02
2022-10-31T14:57:39.228Z,56.71
2022-10-31T15:00:16.006Z,56.87
2022-10-31T15:03:11.994Z,57.30
2022-10-31T15:05:50.482Z,57.63
2022-10-31T15:08:38.602Z,57.62
2022-10-31T15:11:28.225Z,58.49
2022-10-31T15:13:58.043Z,58.56
2022-10-31T15:16:36.522Z,58.82
2022-10-31T15:19:21.910Z,58.40
2022-10-31T15:21:52.113Z,58.92
2022-10-31T15:24:22.152Z,59.36
2022-10-31T15:26:53.057Z,59.36
2022-10-31T15:29:23.560Z,58.90
2022-10-31T15:31:57.895Z,58.33
2022-10-31T15:34:41.808Z,57.21
2022-10-31T15:37:18.555Z,57.80
2022-10-31T15:39:47.828Z,57.53
2022-10-31T15:42:25.422Z,57.37
2022-10-31T15:45:19.695Z,58.71
2022-10-31T15:48:01.943Z,58.63
2022-10-31T15:50:49.488Z,58.57
2022-10-31T15:53:25.376Z,59.03
2022-10-31T15:55:58.066Z,58.93
2022-10-31T15:58:27.908Z,58.83
2022-10-31T16:01:06.930Z,58.96
2022-10-31T16:03:35.097Z,59.59
2022-10-31T16:06:05.696Z,59.94
2022-10-31T16:08:32.085Z,59.63
2022-10-31T16:11:18.337Z,59.95
2022-10-31T16:14:18.483Z,59.91
2022-10-31T16:16:54.565Z,60.43
2022-10-31T16:19:28.107Z,60.63
2022-10-31T16:22:06.982Z,61.05
2022-10-31T16:24:48.732Z,61.40
2022-10-31T16:27:31.879Z,61.44
2022-10-31T16:30:07.332Z,61.80
2022-10-31T16:32:52.861Z,62.19
2022-10-31T16:35:27.150Z,62.10
2022-10-31T16:37:55.032Z,62.44
2022-10-31T16:40:21.954Z,62.41
2022-10-31T16:42:49.883Z,62.67
2022-10-31T16:45:23.590Z,63.02
2022-10-31T16:47:51.783Z,62.72
2022-10-31T16:50:27.790Z,63.02
2022-10-31T16:53:12.776Z,63.23
2022-10-31T16:55:56.669Z,63.37
2022-10-31T16:58:28.380Z,63.35
2022-10-31T17:00:55.369Z,63.42
2022-10-31T17:03:21.931Z,63.84
2022-10-31T17:05:48.973Z,63.83
2022-10-31T17:08:15.782Z,63.54
2022-10-31T17:10:45.788Z,63.38
2022-10-31T17:13:19.538Z,63.66
2022-10-31T17:15:53.286Z,64.13
2022-10-31T17:18:24.458Z,63.94
2022-10-31T17:21:03.097Z,64.15
2022-10-31T17:23:30.829Z,64.73
2022-10-31T17:25:57.488Z,64.61
2022-10-31T17:28:26.357Z,64.82
2022-10-31T17:30:58.198Z,65.50
2022-10-31T17:33:24.862Z,65.75
2022-10-31T17:35:51.638Z,65.80
2022-10-31T17:38:18.085Z,65.90
2022-10-31T17:40:45.154Z,65.92
2022-10-31T17:43:12.619Z,65.96
2022-10-31T17:45:41.586Z,65.71
2022-10-31T17:48:12.403Z,65.83
2022-10-31T17:50:38.965Z,66.58
2022-10-31T17:53:05.486Z,66.54
2022-10-31T17:55:36.063Z,66.66
2022-10-31T17:58:04.429Z,67.01
2022-10-31T18:00:30.884Z,66.58
2022-10-31T18:02:57.484Z,66.70
2022-10-31T18:05:23.997Z,67.17
2022-10-31T18:07:51.166Z,67.24
2022-10-31T18:10:18.084Z,67.14
2022-10-31T18:12:44.512Z,67.49
2022-10-31T18:15:11.188Z,67.31
2022-10-31T18:17:41.002Z,67.37
2022-10-31T18:20:10.167Z,67.59
2022-10-31T18:22:36.980Z,67.46
2022-10-31T18:25:05.358Z,67.66
2022-10-31T18:27:31.825Z,67.80
2022-10-31T18:29:58.411Z,67.98
2022-10-31T18:32:24.919Z,67.66
2022-10-31T18:34:51.366Z,67.71
2022-10-31T18:37:17.838Z,67.47
2022-10-31T18:39:44.286Z,67.74
2022-10-31T18:42:10.722Z,67.93
2022-10-31T18:44:38.110Z,67.92
2022-10-31T18:47:04.672Z,68.36
2022-10-31T18:49:32.706Z,68.36
2022-10-31T18:51:59.828Z,68.70
2022-10-31T18:54:26.317Z,68.54
2022-10-31T18:56:52.748Z,68.65
2022-10-31T18:59:19.186Z,68.83
2022-10-31T19:01:46.726Z,68.44
2022-10-31T19:04:13.577Z,68.79
2022-10-31T19:06:40.083Z,69.25
2022-10-31T19:09:09.552Z,69.58
2022-10-31T19:11:37.996Z,69.47
2022-10-31T19:14:05.611Z,69.05
2022-10-31T19:16:32.139Z,69.60
2022-10-31T19:18:59.888Z,69.84
2022-10-31T19:21:26.795Z,69.63
2022-10-31T19:23:56.288Z,69.42
2022-10-31T19:26:22.892Z,69.42
2022-10-31T19:28:49.464Z,70.10
2022-10-31T19:31:15.920Z,69.48
2022-10-31T19:33:42.411Z,69.47
2022-10-31T19:36:16.369Z,69.86
2022-10-31T19:38:45.941Z,70.13
2022-10-31T19:41:17.273Z,69.33
2022-10-31T19:43:44.117Z,69.22
2022-10-31T19:46:21.996Z,69.47
2022-10-31T19:48:54.886Z,69.56
2022-10-31T19:51:22.216Z,70.03
2022-10-31T19:53:52.190Z,70.43
2022-10-31T19:56:22.339Z,70.11
2022-10-31T19:58:49.485Z,69.77
2022-10-31T20:01:22.917Z,69.22
2022-10-31T20:03:50.748Z,69.59
2022-10-31T20:06:35.741Z,69.10
2022-10-31T20:09:08.037Z,69.43
2022-10-31T20:11:38.541Z,70.72
2022-10-31T20:14:07.084Z,70.31
2022-10-31T20:16:34.421Z,69.86
2022-10-31T20:19:00.879Z,69.86
2022-10-31T20:21:30.948Z,69.98
2022-10-31T20:24:00.533Z,70.27
2022-10-31T20:26:28.927Z,70.65
2022-10-31T20:28:57.300Z,71.37
2022-10-31T20:31:29.743Z,71.39
2022-10-31T20:33:56.918Z,71.48
2022-10-31T20:36:24.094Z,70.73
2022-10-31T20:38:52.660Z,70.13
2022-10-31T20:41:20.144Z,70.24
2022-10-31T20:43:47.518Z,70.40
2022-10-31T20:46:26.414Z,70.21
2022-10-31T20:48:54.237Z,71.08
2022-10-31T20:51:31.732Z,70.69
2022-10-31T20:53:59.878Z,70.53
2022-10-31T20:56:28.449Z,70.37
2022-10-31T20:58:57.043Z,71.01
2022-10-31T21:01:28.223Z,70.53
2022-10-31T21:03:55.799Z,70.44
2022-10-31T21:06:23.605Z,70.24
2022-10-31T21:08:51.977Z,70.56
2022-10-31T21:11:22.274Z,70.84
2022-10-31T21:13:50.641Z,71.15
2022-10-31T21:16:32.164Z,71.23
2022-10-31T21:19:00.728Z,71.58
2022-10-31T21:21:34.519Z,71.75
2022-10-31T21:24:12.699Z,71.99
2022-10-31T21:26:44.600Z,71.68
2022-10-31T21:29:13.593Z,71.29
2022-10-31T21:31:41.211Z,71.26
2022-10-31T21:34:08.541Z,71.70
2022-10-31T21:36:36.218Z,71.32
2022-10-31T21:39:05.551Z,71.68
2022-10-31T21:41:32.074Z,71.13
2022-10-31T21:43:58.660Z,71.29
2022-10-31T21:46:29.420Z,71.40
2022-10-31T21:48:56.908Z,70.91
2022-10-31T21:51:30.901Z,70.86
2022-10-31T21:54:16.212Z,70.92
2022-10-31T21:56:43.536Z,71.26
2022-10-31T21:59:10.613Z,71.50
2022-10-31T22:01:37.290Z,71.54
2022-10-31T22:04:04.502Z,70.94
2022-10-31T22:06:32.142Z,70.74
2022-10-31T22:09:01.919Z,71.14
2022-10-31T22:11:29.034Z,70.89
2022-10-31T22:13:58.236Z,70.83
2022-10-31T22:16:26.787Z,70.46
2022-10-31T22:18:57.710Z,71.40
2022-10-31T22:21:28.081Z,71.17
2022-10-31T22:24:00.592Z,70.92
2022-10-31T22:26:30.080Z,71.12
2022-10-31T22:29:01.939Z,71.53
2022-10-31T22:31:30.370Z,70.88
2022-10-31T22:33:57.601Z,71.56
2022-10-31T22:36:27.982Z,70.80
2022-10-31T22:38:54.651Z,70.92
2022-10-31T22:41:26.782Z,71.79
2022-10-31T22:43:55.223Z,72.05
2022-10-31T22:46:31.312Z,72.38
2022-10-31T22:49:02.121Z,72.11
2022-10-31T22:51:32.267Z,72.22
2022-10-31T22:53:59.017Z,71.88
2022-10-31T22:56:31.216Z,71.72
2022-10-31T22:58:59.301Z,71.91
2022-10-31T23:01:32.332Z,71.59
2022-10-31T23:04:00.043Z,71.88
2022-10-31T23:06:32.428Z,71.73
2022-10-31T23:09:01.498Z,71.76
2022-10-31T23:12:43.921Z,71.56
2022-10-31T23:15:10.626Z,71.92
2022-10-31T23:17:39.003Z,71.94
2022-10-31T23:20:06.985Z,72.16
2022-10-31T23:22:33.459Z,72.20
2022-10-31T23:24:59.962Z,73.16
2022-10-31T23:27:26.989Z,73.35
2022-10-31T23:29:59.381Z,72.81
2022-10-31T23:32:37.764Z,72.37
2022-10-31T23:35:09.606Z,72.53
2022-10-31T23:37:38.821Z,72.62
2022-10-31T23:40:08.570Z,72.78
2022-10-31T23:42:35.688Z,73.29
2022-10-31T23:45:02.162Z,72.91
2022-10-31T23:47:28.673Z,72.72
2022-10-31T23:49:55.129Z,72.55
2022-10-31T23:52:21.588Z,72.08
2022-10-31T23:54:48.131Z,72.33
2022-10-31T23:57:16.431Z,72.66
2022-10-31T23:59:43.136Z,72.52
